createdAt,value
2018-04-26T00:05:28.541Z,6.9
2018-04-26T00:18:29.421Z,7
2018-04-26T00:20:29.533Z,6.9
2018-04-26T00:21:29.547Z,7
2018-04-26T00:22:29.601Z,6.9
2018-04-26T00:27:29.929Z,6.7
2018-04-26T00:32:30.257Z,6.9
2018-04-26T00:35:30.452Z,7
2018-04-26T00:37:30.596Z,7.1
2018-04-26T00:38:30.605Z,7.2
2018-04-26T00:40:30.734Z,7.4
2018-04-26T00:41:30.795Z,7.5
2018-04-26T00:42:30.902Z,7.6
2018-04-26T00:44:30.974Z,7.7
2018-04-26T00:45:31.041Z,7.9
2018-04-26T00:47:31.179Z,8
2018-04-26T00:48:31.219Z,8.1
2018-04-26T00:50:31.347Z,8.3
2018-04-26T00:51:31.414Z,8.4
2018-04-26T00:53:31.561Z,8.5
2018-04-26T00:56:31.678Z,8.6
2018-04-26T00:59:31.872Z,8.8
2018-04-26T01:04:32.261Z,8.9
2018-04-26T01:07:32.390Z,9
2018-04-26T01:08:32.482Z,8.9
2018-04-26T01:09:32.500Z,9
2018-04-26T01:14:32.832Z,9.1
2018-04-26T01:36:34.202Z,9.3
2018-04-26T01:37:34.202Z,9.1
2018-04-26T01:40:34.445Z,9.3
2018-04-26T01:41:34.500Z,9.1
2018-04-26T01:42:34.554Z,9.3
2018-04-26T01:43:34.566Z,9.1
2018-04-26T02:32:37.639Z,9
2018-04-26T02:37:37.953Z,8.9
2018-04-26T02:54:38.934Z,9
2018-04-26T03:05:39.676Z,9.1
2018-04-26T03:06:39.715Z,9
2018-04-26T03:07:39.779Z,9.1
2018-04-26T03:11:40.064Z,9
2018-04-26T03:16:40.286Z,8.9
2018-04-26T03:19:40.482Z,8.8
2018-04-26T03:24:40.777Z,8.6
2018-04-26T03:27:40.975Z,8.5
2018-04-26T03:31:41.330Z,8.4
2018-04-26T03:36:41.574Z,8.3
2018-04-26T03:47:42.194Z,8.1
2018-04-26T03:54:42.686Z,8
2018-04-26T04:01:43.094Z,7.9
2018-04-26T04:27:44.652Z,8
2018-04-26T04:30:45.572Z,8.1
2018-04-26T04:33:45.017Z,8.3
2018-04-26T04:34:45.123Z,8.4
2018-04-26T04:36:45.210Z,8.5
2018-04-26T04:40:45.487Z,8.6
2018-04-26T04:42:45.669Z,8.8
2018-04-26T04:46:45.817Z,8.6
2018-04-26T04:47:45.977Z,8.8
2018-04-26T04:50:46.114Z,8.9
2018-04-26T04:55:46.415Z,9
2018-04-26T04:59:46.639Z,9.1
2018-04-26T05:08:47.171Z,9.3
2018-04-26T05:09:47.586Z,9.1
2018-04-26T05:20:47.912Z,9.3
2018-04-26T05:22:48.038Z,9.4
2018-04-26T05:25:48.271Z,9.5
2018-04-26T05:34:48.782Z,9.4
2018-04-26T05:35:48.845Z,9.5
2018-04-26T05:36:48.896Z,9.4
2018-04-26T05:40:49.214Z,9.3
2018-04-26T05:42:49.318Z,9.1
2018-04-26T05:44:49.461Z,9
2018-04-26T05:48:49.635Z,8.9
2018-04-26T05:50:49.758Z,8.8
2018-04-26T05:52:49.905Z,8.6
2018-04-26T05:54:50.004Z,8.5
2018-04-26T05:56:50.150Z,8.4
2018-04-26T05:59:50.349Z,8.3
2018-04-26T06:03:50.609Z,8.1
2018-04-26T06:09:50.924Z,8.3
2018-04-26T06:29:52.202Z,8.1
2018-04-26T06:30:52.255Z,8.3
2018-04-26T06:31:52.324Z,8.1
2018-04-26T06:42:52.958Z,8
2018-04-26T06:44:53.093Z,7.9
2018-04-26T06:46:53.214Z,7.7
2018-04-26T06:51:53.553Z,7.9
2018-04-26T06:54:53.725Z,8
2018-04-26T06:57:53.934Z,8.1
2018-04-26T06:59:53.999Z,8.3
2018-04-26T07:00:54.081Z,8.4
2018-04-26T07:01:54.124Z,8.5
2018-04-26T07:02:54.184Z,8.8
2018-04-26T07:03:54.250Z,8.9
2018-04-26T07:04:54.303Z,9
2018-04-26T07:05:54.444Z,9.1
2018-04-26T07:06:54.477Z,9.3
2018-04-26T07:07:54.539Z,9.4
2018-04-26T07:09:54.658Z,9.5
2018-04-26T07:13:54.892Z,9.4
2018-04-26T07:16:55.105Z,9.5
2018-04-26T07:20:55.301Z,9.4
2018-04-26T07:21:55.473Z,9.3
2018-04-26T07:23:55.503Z,9.1
2018-04-26T07:28:55.794Z,9.3
2018-04-26T07:30:55.911Z,9.4
2018-04-26T07:31:55.965Z,9.5
2018-04-26T07:32:56.035Z,9.6
2018-04-26T07:33:56.130Z,9.8
2018-04-26T07:34:56.238Z,10
2018-04-26T07:35:56.221Z,10.1
2018-04-26T07:36:56.280Z,10.4
2018-04-26T07:37:56.385Z,10.8
2018-04-26T07:38:56.416Z,11
2018-04-26T07:39:56.474Z,11.1
2018-04-26T07:40:56.569Z,11.5
2018-04-26T07:41:56.635Z,12
2018-04-26T07:42:56.679Z,11.9
2018-04-26T07:43:56.712Z,11.6
2018-04-26T07:44:56.762Z,11.5
2018-04-26T07:47:56.970Z,11.6
2018-04-26T07:51:57.189Z,11.5
2018-04-26T07:52:57.280Z,11.4
2018-04-26T07:53:57.372Z,11.3
2018-04-26T07:54:57.429Z,11.1
2018-04-26T07:55:57.509Z,11
2018-04-26T07:56:57.568Z,10.9
2018-04-26T07:58:57.709Z,10.8
2018-04-26T07:59:57.723Z,10.6
2018-04-26T08:00:57.737Z,10.5
2018-04-26T08:01:57.838Z,10.4
2018-04-26T08:03:57.989Z,10.3
2018-04-26T08:04:58.029Z,10.4
2018-04-26T08:06:58.165Z,10.5
2018-04-26T08:07:58.175Z,10.9
2018-04-26T08:08:58.285Z,11.4
2018-04-26T08:09:58.374Z,11.9
2018-04-26T08:10:58.400Z,12.1
2018-04-26T08:11:58.455Z,12.9
2018-04-26T08:12:58.537Z,14
2018-04-26T08:17:58.803Z,14.4
2018-04-26T08:18:58.864Z,15.6
2018-04-26T08:19:58.938Z,18.3
2018-04-26T08:20:58.985Z,19
2018-04-26T08:21:59.055Z,18.4
2018-04-26T08:22:59.135Z,17.9
2018-04-26T08:24:01.285Z,17.5
2018-04-26T08:24:59.355Z,16.9
2018-04-26T08:25:59.306Z,16.3
2018-04-26T08:26:59.409Z,15.6
2018-04-26T08:27:59.504Z,15.1
2018-04-26T08:28:59.534Z,14.9
2018-04-26T08:29:59.632Z,14.5
2018-04-26T08:30:59.634Z,14.3
2018-04-26T08:31:59.668Z,13.9
2018-04-26T08:32:59.733Z,13.6
2018-04-26T08:33:59.803Z,13.3
2018-04-26T08:35:00.150Z,13
2018-04-26T08:35:59.918Z,12.8
2018-04-26T08:37:00.034Z,12.6
2018-04-26T08:39:00.108Z,12.5
2018-04-26T08:40:00.264Z,12.4
2018-04-26T08:44:01.840Z,12.5
2018-04-26T08:45:00.937Z,12.4
2018-04-26T08:47:01.585Z,12.2
2018-04-26T08:48:01.124Z,12.1
2018-04-26T08:49:01.352Z,11.9
2018-04-26T08:50:01.029Z,11.8
2018-04-26T08:51:01.417Z,11.6
2018-04-26T08:52:02.025Z,11.5
2018-04-26T08:53:01.595Z,11.4
2018-04-26T08:55:01.184Z,11.3
2018-04-26T08:56:01.667Z,11.1
2018-04-26T09:00:01.411Z,11
2018-04-26T09:01:01.506Z,11.1
2018-04-26T09:03:01.576Z,11
2018-04-26T09:10:01.999Z,11.1
2018-04-26T09:11:02.117Z,11.5
2018-04-26T09:12:02.185Z,11.9
2018-04-26T09:13:02.201Z,12.6
2018-04-26T09:14:02.247Z,13
2018-04-26T09:15:02.372Z,13.5
2018-04-26T09:16:02.421Z,13.8
2018-04-26T09:17:02.471Z,14.1
2018-04-26T09:18:02.517Z,15
2018-04-26T09:19:02.600Z,15.3
2018-04-26T09:20:02.702Z,15.8
2018-04-26T09:21:02.684Z,16.5
2018-04-26T09:22:02.989Z,17.2
2018-04-26T09:23:02.851Z,17.4
2018-04-26T09:24:02.880Z,17.2
2018-04-26T09:25:03.038Z,17.4
2018-04-26T09:26:03.005Z,17.5
2018-04-26T09:27:03.045Z,17.6
2018-04-26T09:28:03.151Z,17.9
2018-04-26T09:29:03.168Z,19.1
2018-04-26T09:30:03.431Z,21.6
2018-04-26T09:31:03.337Z,22.1
2018-04-26T09:32:03.357Z,22.6
2018-04-26T09:33:03.458Z,23.1
2018-04-26T09:34:03.519Z,25.3
2018-04-26T09:35:03.650Z,26.4
2018-04-26T09:37:03.702Z,26.9
2018-04-26T09:38:03.923Z,26.1
2018-04-26T09:39:03.821Z,25.9
2018-04-26T09:40:03.920Z,24.5
2018-04-26T09:41:03.954Z,23.1
2018-04-26T09:42:04.016Z,21.9
2018-04-26T09:43:04.079Z,20.8
2018-04-26T09:44:04.138Z,19.6
2018-04-26T09:45:04.254Z,18.8
2018-04-26T09:46:04.280Z,17.9
2018-04-26T09:47:04.326Z,17
2018-04-26T09:48:04.382Z,16.4
2018-04-26T09:49:04.421Z,15.8
2018-04-26T09:50:04.571Z,15.1
2018-04-26T09:51:04.543Z,14.7
2018-04-26T09:52:04.600Z,14.4
2018-04-26T09:53:04.652Z,14.1
2018-04-26T09:54:04.697Z,13.9
2018-04-26T09:55:04.746Z,13.8
2018-04-26T09:56:04.807Z,13.9
2018-04-26T09:57:04.861Z,14.1
2018-04-26T09:58:04.927Z,15
2018-04-26T09:59:05.010Z,15.8
2018-04-26T10:00:05.089Z,18.3
2018-04-26T10:01:05.128Z,19.1
2018-04-26T10:02:05.181Z,19.5
2018-04-26T10:03:05.298Z,21.2
2018-04-26T10:04:05.313Z,21.1
2018-04-26T10:05:05.421Z,23.5
2018-04-26T10:06:05.483Z,24
2018-04-26T10:07:05.494Z,26
2018-04-26T10:08:05.595Z,27.6
2018-04-26T10:09:05.614Z,28.3
2018-04-26T10:10:05.755Z,29.3
2018-04-26T10:11:05.721Z,30.5
2018-04-26T10:12:05.812Z,31.5
2018-04-26T10:13:05.849Z,31.9
2018-04-26T10:14:05.918Z,32.5
2018-04-26T10:15:06.061Z,33
2018-04-26T10:16:06.042Z,31.4
2018-04-26T10:17:06.115Z,31.8
2018-04-26T10:18:06.203Z,31.2
2018-04-26T10:19:06.219Z,29.4
2018-04-26T10:20:06.282Z,27.8
2018-04-26T10:21:06.493Z,26.1
2018-04-26T10:22:06.471Z,25.1
2018-04-26T10:23:06.538Z,23.6
2018-04-26T10:24:06.590Z,22.2
2018-04-26T10:25:06.617Z,21
2018-04-26T10:26:06.681Z,19.8
2018-04-26T10:27:06.974Z,18.6
2018-04-26T10:28:07.065Z,17.5
2018-04-26T10:29:07.094Z,16.5
2018-04-26T10:30:07.136Z,15.5
2018-04-26T10:31:07.301Z,14.7
2018-04-26T10:32:07.287Z,14.1
2018-04-26T10:33:07.397Z,13.6
2018-04-26T10:34:07.407Z,13.1
2018-04-26T10:35:07.435Z,12.6
2018-04-26T10:36:07.606Z,12.4
2018-04-26T10:37:07.597Z,12
2018-04-26T10:38:07.663Z,11.8
2018-04-26T10:39:07.723Z,11.5
2018-04-26T10:40:07.746Z,11.1
2018-04-26T10:41:07.808Z,10.8
2018-04-26T10:42:07.882Z,10.5
2018-04-26T10:43:07.926Z,10.3
2018-04-26T10:44:07.983Z,10.1
2018-04-26T10:45:08.049Z,10
2018-04-26T10:46:08.121Z,9.9
2018-04-26T10:47:08.185Z,9.8
2018-04-26T10:52:08.526Z,9.9
2018-04-26T10:53:08.543Z,10
2018-04-26T10:54:08.617Z,10.3
2018-04-26T10:55:08.694Z,10.4
2018-04-26T10:56:08.767Z,10.5
2018-04-26T10:57:08.790Z,10.8
2018-04-26T10:58:08.850Z,10.9
2018-04-26T10:59:08.913Z,11.1
2018-04-26T11:00:09.032Z,11.3
2018-04-26T11:01:09.030Z,11.4
2018-04-26T11:04:09.222Z,11.3
2018-04-26T11:05:09.349Z,11.1
2018-04-26T11:06:09.392Z,11
2018-04-26T11:07:09.470Z,10.9
2018-04-26T11:10:09.612Z,10.8
2018-04-26T11:11:09.689Z,10.9
2018-04-26T11:13:09.843Z,11
2018-04-26T11:15:09.934Z,11.1
2018-04-26T11:16:10.007Z,11.3
2018-04-26T11:17:10.123Z,11.5
2018-04-26T11:18:10.139Z,12.4
2018-04-26T11:19:10.191Z,13.4
2018-04-26T11:20:10.242Z,14.6
2018-04-26T11:21:10.306Z,15.5
2018-04-26T11:22:10.369Z,16
2018-04-26T11:23:10.400Z,16.5
2018-04-26T11:24:10.499Z,17.1
2018-04-26T11:25:10.518Z,18.3
2018-04-26T11:26:10.589Z,18.8
2018-04-26T11:27:10.760Z,19.1
2018-04-26T11:28:10.757Z,19.4
2018-04-26T11:29:10.809Z,19.5
2018-04-26T11:33:10.994Z,19.4
2018-04-26T11:35:11.135Z,19.3
2018-04-26T11:36:11.231Z,19.1
2018-04-26T11:37:11.263Z,19
2018-04-26T11:38:11.363Z,18.9
2018-04-26T11:39:11.422Z,18.8
2018-04-26T11:40:11.541Z,18.6
2018-04-26T11:41:11.507Z,18.5
2018-04-26T11:42:11.570Z,18.4
2018-04-26T11:43:11.644Z,18.3
2018-04-26T11:46:11.798Z,18.1
2018-04-26T11:48:11.924Z,18
2018-04-26T11:50:12.059Z,17.9
2018-04-26T11:51:12.138Z,17.8
2018-04-26T11:53:12.231Z,17.6
2018-04-26T11:57:12.550Z,17.5
2018-04-26T12:00:12.665Z,17.4
2018-04-26T12:04:12.914Z,17.5
2018-04-26T12:05:13.007Z,17.6
2018-04-26T12:06:13.064Z,17.8
2018-04-26T12:08:13.232Z,18
2018-04-26T12:09:13.282Z,18.4
2018-04-26T12:10:13.308Z,18.5
2018-04-26T12:12:13.419Z,19
2018-04-26T12:13:13.544Z,19.8
2018-04-26T12:14:13.573Z,20.6
2018-04-26T12:15:13.607Z,22.1
2018-04-26T12:16:13.652Z,23.9
2018-04-26T12:17:13.709Z,25.8
2018-04-26T12:18:13.780Z,27.4
2018-04-26T12:19:13.883Z,29
2018-04-26T12:20:13.900Z,30.4
2018-04-26T12:21:13.964Z,31.4
2018-04-26T12:22:14.027Z,32.2
2018-04-26T12:23:14.094Z,33.1
2018-04-26T12:24:14.141Z,33.7
2018-04-26T12:25:14.211Z,34.4
2018-04-26T12:26:14.308Z,34.7
2018-04-26T12:27:14.392Z,35.2
2018-04-26T12:28:14.455Z,35.6
2018-04-26T12:29:14.537Z,36
2018-04-26T12:30:14.573Z,36.5
2018-04-26T12:31:14.599Z,35.2
2018-04-26T12:32:14.757Z,36
2018-04-26T12:33:14.693Z,35.2
2018-04-26T12:35:14.918Z,36
2018-04-26T12:36:14.915Z,36.6
2018-04-26T12:37:15.001Z,37.1
2018-04-26T12:38:15.016Z,37.5
2018-04-26T12:39:15.110Z,37.9
2018-04-26T12:40:15.193Z,38.2
2018-04-26T12:42:15.395Z,38.6
2018-04-26T12:43:15.317Z,39
2018-04-26T12:44:15.419Z,39.2
2018-04-26T12:45:15.473Z,39.6
2018-04-26T12:46:15.527Z,39.9
2018-04-26T12:47:15.654Z,39.7
2018-04-26T12:48:15.658Z,37.9
2018-04-26T12:49:15.704Z,35.1
2018-04-26T12:50:15.820Z,32.9
2018-04-26T12:51:15.879Z,31.1
2018-04-26T12:52:15.975Z,29.5
2018-04-26T12:53:15.948Z,28
2018-04-26T12:54:16.036Z,26.6
2018-04-26T12:55:16.097Z,25.3
2018-04-26T12:56:16.157Z,23.9
2018-04-26T12:57:16.281Z,22.6
2018-04-26T12:58:16.335Z,21.6
2018-04-26T12:59:16.342Z,23.7
2018-04-26T13:00:16.415Z,25.6
2018-04-26T13:01:16.473Z,27.1
2018-04-26T13:02:16.554Z,28.4
2018-04-26T13:03:16.597Z,29.6
2018-04-26T13:05:16.679Z,30.4
2018-04-26T13:06:16.730Z,29.3
2018-04-26T13:07:16.820Z,27.1
2018-04-26T13:08:16.900Z,26.1
2018-04-26T13:09:16.914Z,27.1
2018-04-26T13:10:17.014Z,25.8
2018-04-26T13:11:17.099Z,24.7
2018-04-26T13:12:17.136Z,23.9
2018-04-26T13:13:17.209Z,23.3
2018-04-26T13:14:17.278Z,25.9
2018-04-26T13:15:17.323Z,26.8
2018-04-26T13:16:17.419Z,28.6
2018-04-26T13:17:17.657Z,29.9
2018-04-26T13:18:17.528Z,30.9
2018-04-26T13:19:17.568Z,32.1
2018-04-26T13:20:17.677Z,32.5
2018-04-26T13:21:17.767Z,33.5
2018-04-26T13:22:17.724Z,34.2
2018-04-26T13:23:17.821Z,34.9
2018-04-26T13:24:17.852Z,35
2018-04-26T13:25:17.908Z,35.5
2018-04-26T13:26:17.986Z,35.9
2018-04-26T13:27:18.112Z,36.1
2018-04-26T13:28:18.222Z,36.5
2018-04-26T13:29:18.155Z,36.6
2018-04-26T13:30:18.254Z,36.7
2018-04-26T13:31:18.289Z,37
2018-04-26T13:32:18.419Z,37.1
2018-04-26T13:33:18.440Z,36.1
2018-04-26T13:34:18.489Z,34.4
2018-04-26T13:35:18.547Z,35.2
2018-04-26T13:36:18.686Z,36.1
2018-04-26T13:37:18.677Z,36.9
2018-04-26T13:38:18.742Z,36.6
2018-04-26T13:39:18.802Z,36.1
2018-04-26T13:40:18.886Z,34.4
2018-04-26T13:41:18.956Z,34.1
2018-04-26T13:42:18.989Z,34.9
2018-04-26T13:43:19.061Z,35.1
2018-04-26T13:44:19.125Z,34.7
2018-04-26T13:45:19.186Z,35.4
2018-04-26T13:46:19.288Z,35.1
2018-04-26T13:47:19.329Z,33
2018-04-26T13:48:19.334Z,31.1
2018-04-26T13:49:19.438Z,29.8
2018-04-26T13:50:19.496Z,28.6
2018-04-26T13:51:19.558Z,27.6
2018-04-26T13:52:19.616Z,26.8
2018-04-26T13:53:19.657Z,27.9
2018-04-26T13:54:19.705Z,29.9
2018-04-26T13:55:19.759Z,31.2
2018-04-26T13:56:19.830Z,32.5
2018-04-26T13:57:19.882Z,33.4
2018-04-26T13:58:19.992Z,34.2
2018-04-26T13:59:20.047Z,34.9
2018-04-26T14:00:20.074Z,34.6
2018-04-26T14:01:20.176Z,32.9
2018-04-26T14:02:20.210Z,31.9
2018-04-26T14:03:20.267Z,31
2018-04-26T14:04:20.377Z,29.4
2018-04-26T14:05:20.389Z,27.9
2018-04-26T14:06:20.488Z,26.4
2018-04-26T14:07:20.543Z,25.1
2018-04-26T14:08:20.581Z,24
2018-04-26T14:09:20.629Z,23
2018-04-26T14:10:20.714Z,22.1
2018-04-26T14:11:20.740Z,21.5
2018-04-26T14:12:20.807Z,20.9
2018-04-26T14:13:20.876Z,20.4
2018-04-26T14:14:20.931Z,19.9
2018-04-26T14:15:21.027Z,19.8
2018-04-26T14:16:21.064Z,21.2
2018-04-26T14:17:21.115Z,23.6
2018-04-26T14:18:21.201Z,25.6
2018-04-26T14:19:21.266Z,27.1
2018-04-26T14:20:21.353Z,28.4
2018-04-26T14:21:21.371Z,29.5
2018-04-26T14:22:21.438Z,30.3
2018-04-26T14:23:21.619Z,31.1
2018-04-26T14:24:21.587Z,31.8
2018-04-26T14:25:21.652Z,32.2
2018-04-26T14:26:21.726Z,32.5
2018-04-26T14:27:21.748Z,32.9
2018-04-26T14:28:21.788Z,33.2
2018-04-26T14:29:21.896Z,33.6
2018-04-26T14:30:21.956Z,33.9
2018-04-26T14:31:22.013Z,34
2018-04-26T14:32:22.129Z,34.1
2018-04-26T14:33:22.099Z,34.4
2018-04-26T14:34:22.201Z,34.5
2018-04-26T14:37:22.536Z,33.4
2018-04-26T14:38:22.406Z,32.1
2018-04-26T14:39:22.489Z,30.3
2018-04-26T14:40:22.542Z,28.5
2018-04-26T14:41:22.644Z,27.6
2018-04-26T14:42:22.666Z,27.4
2018-04-26T14:43:22.761Z,28.7
2018-04-26T14:44:22.800Z,29
2018-04-26T14:45:22.916Z,29.9
2018-04-26T14:46:22.914Z,30.6
2018-04-26T14:47:22.982Z,31.2
2018-04-26T14:48:23.094Z,31.8
2018-04-26T14:49:23.086Z,32
2018-04-26T14:50:23.151Z,32.2
2018-04-26T14:51:23.209Z,32.4
2018-04-26T14:52:23.332Z,32.2
2018-04-26T14:53:23.344Z,32.4
2018-04-26T14:58:23.677Z,32.5
2018-04-26T15:05:24.110Z,32.6
2018-04-26T15:06:24.192Z,32.5
2018-04-26T15:07:24.240Z,32.6
2018-04-26T15:08:24.264Z,32.5
2018-04-26T15:10:24.381Z,32.4
2018-04-26T15:12:24.538Z,32.2
2018-04-26T15:13:24.591Z,31
2018-04-26T15:14:24.699Z,28.9
2018-04-26T15:15:24.819Z,26.9
2018-04-26T15:16:24.746Z,26.1
2018-04-26T15:17:24.863Z,25.9
2018-04-26T15:18:24.911Z,24.5
2018-04-26T15:19:24.928Z,23.3
2018-04-26T15:20:25.063Z,22.1
2018-04-26T15:21:25.185Z,21.1
2018-04-26T15:22:25.160Z,20.3
2018-04-26T15:23:25.224Z,19.5
2018-04-26T15:24:25.256Z,18.8
2018-04-26T15:25:25.346Z,18.3
2018-04-26T15:26:25.402Z,17.8
2018-04-26T15:27:25.471Z,17.2
2018-04-26T15:28:25.531Z,16.8
2018-04-26T15:29:25.607Z,16.4
2018-04-26T15:30:25.613Z,15.9
2018-04-26T15:31:25.760Z,15.5
2018-04-26T15:32:25.775Z,15.3
2018-04-26T15:33:25.806Z,15
2018-04-26T15:34:25.869Z,14.9
2018-04-26T15:35:25.916Z,14.7
2018-04-26T15:36:25.980Z,14.6
2018-04-26T15:37:26.059Z,14.5
2018-04-26T15:41:26.331Z,14.6
2018-04-26T15:43:26.436Z,14.5
2018-04-26T15:44:26.589Z,14.6
2018-04-26T15:51:26.983Z,14.7
2018-04-26T15:53:27.036Z,14.9
2018-04-26T15:54:27.100Z,15.1
2018-04-26T15:55:27.202Z,15.3
2018-04-26T15:56:27.255Z,15.4
2018-04-26T15:57:27.309Z,15.8
2018-04-26T15:58:27.376Z,16.5
2018-04-26T15:59:27.406Z,17.1
2018-04-26T16:03:27.707Z,17
2018-04-26T16:04:27.771Z,16.6
2018-04-26T16:05:27.814Z,16.4
2018-04-26T16:06:27.869Z,16.1
2018-04-26T16:07:27.932Z,16
2018-04-26T16:08:28.031Z,15.8
2018-04-26T16:09:28.105Z,15.6
2018-04-26T16:10:28.109Z,15.5
2018-04-26T16:12:28.239Z,15.4
2018-04-26T16:13:28.258Z,15.5
2018-04-26T16:14:28.360Z,15.6
2018-04-26T16:15:28.422Z,15.8
2018-04-26T16:16:28.502Z,15.6
2018-04-26T16:17:28.542Z,15.5
2018-04-26T16:18:28.577Z,15.4
2018-04-26T16:19:28.652Z,15.3
2018-04-26T16:21:28.757Z,15.4
2018-04-26T16:22:28.810Z,15.8
2018-04-26T16:23:28.872Z,16.9
2018-04-26T16:24:28.929Z,18.1
2018-04-26T16:25:29.017Z,19.5
2018-04-26T16:26:29.069Z,20.6
2018-04-26T16:27:29.934Z,21.5
2018-04-26T16:28:29.178Z,22.2
2018-04-26T16:29:29.284Z,22.8
2018-04-26T16:30:29.354Z,23.3
2018-04-26T16:31:29.444Z,23.5
2018-04-26T16:32:29.489Z,23.7
2018-04-26T16:33:29.506Z,24
2018-04-26T16:34:29.616Z,23.6
2018-04-26T16:35:29.605Z,23.9
2018-04-26T16:36:29.697Z,24
2018-04-26T16:37:29.766Z,23.9
2018-04-26T16:38:29.804Z,23.1
2018-04-26T16:39:29.857Z,23.4
2018-04-26T16:40:29.925Z,23.5
2018-04-26T16:41:29.979Z,22.9
2018-04-26T16:42:30.113Z,21.6
2018-04-26T16:43:30.153Z,20.5
2018-04-26T16:44:30.165Z,19.6
2018-04-26T16:45:30.269Z,19
2018-04-26T16:46:30.364Z,18.5
2018-04-26T16:47:30.388Z,18
2018-04-26T16:48:30.451Z,17.6
2018-04-26T16:49:30.523Z,17.1
2018-04-26T16:50:30.612Z,16.9
2018-04-26T16:51:30.660Z,16.5
2018-04-26T16:52:30.658Z,16.3
2018-04-26T16:53:30.749Z,16
2018-04-26T16:54:30.830Z,15.8
2018-04-26T16:55:30.922Z,15.5
2018-04-26T16:56:30.964Z,15.3
2018-04-26T16:57:30.965Z,15.1
2018-04-26T16:58:31.056Z,14.9
2018-04-26T17:00:31.153Z,14.6
2018-04-26T17:02:31.342Z,14.5
2018-04-26T17:03:31.376Z,14.4
2018-04-26T17:04:31.492Z,14.3
2018-04-26T17:05:31.508Z,14.1
2018-04-26T17:06:31.566Z,14
2018-04-26T17:07:31.680Z,13.9
2018-04-26T17:08:31.669Z,13.6
2018-04-26T17:10:31.782Z,13.4
2018-04-26T17:12:31.894Z,13.3
2018-04-26T17:13:31.945Z,13.1
2018-04-26T17:14:32.013Z,13
2018-04-26T17:16:32.201Z,12.8
2018-04-26T17:18:32.288Z,12.5
2018-04-26T17:20:32.411Z,12.4
2018-04-26T17:21:32.489Z,12.2
2018-04-26T17:23:32.625Z,12.1
2018-04-26T17:25:32.728Z,12
2018-04-26T17:28:32.929Z,11.9
2018-04-26T17:30:33.009Z,11.8
2018-04-26T17:34:33.299Z,11.6
2018-04-26T17:37:33.455Z,11.5
2018-04-26T17:45:34.017Z,11.4
2018-04-26T17:49:34.171Z,11.3
2018-04-26T17:51:34.334Z,11.1
2018-04-26T17:52:34.384Z,11
2018-04-26T17:53:34.467Z,10.9
2018-04-26T17:54:34.525Z,10.8
2018-04-26T17:55:34.587Z,10.6
2018-04-26T17:56:34.608Z,10.5
2018-04-26T17:57:34.674Z,10.4
2018-04-26T17:58:34.752Z,10.3
2018-04-26T18:05:35.207Z,10.1
2018-04-26T18:12:35.585Z,10
2018-04-26T18:15:35.833Z,9.9
2018-04-26T18:18:35.953Z,9.8
2018-04-26T18:26:36.575Z,9.6
2018-04-26T18:31:36.818Z,9.5
2018-04-26T18:34:36.937Z,9.4
2018-04-26T18:37:37.169Z,9.3
2018-04-26T18:41:37.472Z,9.1
2018-04-26T18:45:37.645Z,9
2018-04-26T18:50:37.950Z,8.9
2018-04-26T18:59:38.522Z,8.8
2018-04-26T19:01:38.626Z,8.9
2018-04-26T19:03:38.730Z,8.8
2018-04-26T19:05:38.852Z,8.9
2018-04-26T19:07:38.966Z,8.8
2018-04-26T19:08:39.691Z,8.9
2018-04-26T19:14:40.104Z,9
2018-04-26T19:16:40.193Z,8.9
2018-04-26T19:31:41.063Z,8.8
2018-04-26T19:39:41.590Z,8.6
2018-04-26T19:44:41.834Z,8.5
2018-04-26T19:49:42.147Z,8.4
2018-04-26T19:52:42.392Z,8.3
2018-04-26T19:55:42.592Z,8.1
2018-04-26T19:58:42.764Z,8
2018-04-26T20:02:43.014Z,7.9
2018-04-26T20:06:43.208Z,7.7
2018-04-26T20:10:43.456Z,7.6
2018-04-26T20:14:43.720Z,7.5
2018-04-26T20:15:43.744Z,7.6
2018-04-26T20:16:43.825Z,7.5
2018-04-26T20:31:44.767Z,7.4
2018-04-26T20:47:45.728Z,7.5
2018-04-26T20:48:45.831Z,7.4
2018-04-26T20:49:45.928Z,7.5
2018-04-26T21:06:46.923Z,7.4
2018-04-26T21:07:46.999Z,7.5
2018-04-26T21:08:47.043Z,7.4
2018-04-26T21:14:47.435Z,7.2
2018-04-26T21:18:47.703Z,7.1
2018-04-26T21:21:48.050Z,7
2018-04-26T21:26:48.420Z,6.9
2018-04-26T21:31:48.664Z,6.7
2018-04-26T21:34:48.891Z,6.6
2018-04-26T21:39:49.168Z,6.5
2018-04-26T21:45:49.622Z,6.4
2018-04-26T21:51:49.897Z,6.2
2018-04-26T22:04:50.760Z,6.1
2018-04-26T22:07:50.891Z,6.2
2018-04-26T22:08:50.946Z,6.1
2018-04-26T22:17:51.536Z,6.2
2018-04-26T22:18:51.594Z,6.1
2018-04-26T22:19:51.630Z,6.2
2018-04-26T22:20:51.714Z,6.1
2018-04-26T22:21:51.775Z,6.2
2018-04-26T22:32:52.465Z,6.4
2018-04-26T22:33:52.511Z,6.2
2018-04-26T22:34:52.588Z,6.4
2018-04-26T22:44:53.227Z,6.5
2018-04-26T22:48:53.459Z,6.6
2018-04-26T22:49:53.526Z,6.5
2018-04-26T22:50:53.584Z,6.6
2018-04-26T22:54:53.816Z,6.7
2018-04-26T22:59:54.128Z,6.9
2018-04-26T23:11:54.856Z,7
2018-04-26T23:13:55.008Z,6.9
2018-04-26T23:15:55.155Z,7
2018-04-26T23:30:56.020Z,6.9
2018-04-26T23:51:57.319Z,7
2018-04-26T23:52:57.405Z,6.9
